createdAt,value
2022-09-24T00:01:34.648Z,13.30
2022-09-24T00:04:04.862Z,13.30
2022-09-24T00:06:49.655Z,13.30
2022-09-24T00:09:22.075Z,13.30
2022-09-24T00:11:50.272Z,13.20
2022-09-24T00:14:17.769Z,13.20
2022-09-24T00:16:47.815Z,13.20
2022-09-24T00:19:15.405Z,13.20
2022-09-24T00:21:43.241Z,13.20
2022-09-24T00:24:34.781Z,13.20
2022-09-24T00:27:03.058Z,13.10
2022-09-24T00:29:33.902Z,13.10
2022-09-24T00:32:01.219Z,13.10
2022-09-24T00:34:28.224Z,13.10
2022-09-24T00:36:54.993Z,13.10
2022-09-24T00:39:21.800Z,13.10
2022-09-24T00:41:48.928Z,13.10
2022-09-24T00:44:47.232Z,13.00
2022-09-24T00:47:31.232Z,13.00
2022-09-24T00:50:03.749Z,13.00
2022-09-24T00:52:30.796Z,13.00
2022-09-24T00:55:00.767Z,13.00
2022-09-24T00:57:27.535Z,12.90
2022-09-24T00:59:59.337Z,12.90
2022-09-24T01:02:26.266Z,12.90
2022-09-24T01:04:56.903Z,12.90
2022-09-24T01:07:26.105Z,12.90
2022-09-24T01:09:53.359Z,12.90
2022-09-24T01:12:45.845Z,12.90
2022-09-24T01:15:20.927Z,12.90
2022-09-24T01:18:18.907Z,12.90
2022-09-24T01:20:54.733Z,12.90
2022-09-24T01:23:27.408Z,12.90
2022-09-24T01:26:07.686Z,12.90
2022-09-24T01:28:57.072Z,12.90
2022-09-24T01:31:55.257Z,12.90
2022-09-24T01:34:28.897Z,12.90
2022-09-24T01:36:57.704Z,12.80
2022-09-24T01:39:25.882Z,12.90
2022-09-24T01:41:53.541Z,12.90
2022-09-24T01:44:21.082Z,12.90
2022-09-24T01:46:50.528Z,12.90
2022-09-24T01:49:22.206Z,12.90
2022-09-24T01:51:55.823Z,12.90
2022-09-24T01:54:39.055Z,12.80
2022-09-24T01:57:17.235Z,12.80
2022-09-24T02:00:05.973Z,12.90
2022-09-24T02:02:42.592Z,12.80
2022-09-24T02:05:30.305Z,12.80
2022-09-24T02:08:22.409Z,12.80
2022-09-24T02:11:06.648Z,12.80
2022-09-24T02:13:43.034Z,12.70
2022-09-24T02:16:16.293Z,12.70
2022-09-24T02:18:51.152Z,12.70
2022-09-24T02:21:20.240Z,12.70
2022-09-24T02:24:16.390Z,12.70
2022-09-24T02:26:45.608Z,12.70
2022-09-24T02:29:13.230Z,12.70
2022-09-24T02:31:56.372Z,12.70
2022-09-24T02:34:31.389Z,12.70
2022-09-24T02:37:08.509Z,12.70
2022-09-24T02:39:40.016Z,12.70
2022-09-24T02:42:11.542Z,12.70
2022-09-24T02:44:40.482Z,12.70
2022-09-24T02:47:07.367Z,12.70
2022-09-24T02:49:36.494Z,12.70
2022-09-24T02:52:03.937Z,12.70
2022-09-24T02:54:31.195Z,12.70
2022-09-24T02:56:58.432Z,12.80
2022-09-24T02:59:27.611Z,12.70
2022-09-24T03:01:59.039Z,12.70
2022-09-24T03:04:26.230Z,12.70
2022-09-24T03:06:53.371Z,12.70
2022-09-24T03:09:20.235Z,12.70
2022-09-24T03:11:49.824Z,12.70
2022-09-24T03:14:21.522Z,12.70
2022-09-24T03:16:50.740Z,12.60
2022-09-24T03:19:19.672Z,12.70
2022-09-24T03:21:48.559Z,12.60
2022-09-24T03:24:15.325Z,12.60
2022-09-24T03:26:45.291Z,12.60
2022-09-24T03:29:12.138Z,12.60
2022-09-24T03:31:38.887Z,12.60
2022-09-24T03:34:13.520Z,12.60
2022-09-24T03:36:40.252Z,12.60
2022-09-24T03:39:06.999Z,12.60
2022-09-24T03:41:33.793Z,12.60
2022-09-24T03:44:00.717Z,12.50
2022-09-24T03:46:28.453Z,12.60
2022-09-24T03:48:56.141Z,12.60
2022-09-24T03:51:22.997Z,12.60
2022-09-24T03:53:49.782Z,12.50
2022-09-24T03:56:16.699Z,12.60
2022-09-24T03:58:47.297Z,12.60
2022-09-24T04:01:15.891Z,12.50
2022-09-24T04:03:42.646Z,12.50
2022-09-24T04:06:09.435Z,12.40
2022-09-24T04:08:36.188Z,12.40
2022-09-24T04:11:07.484Z,12.30
2022-09-24T04:13:36.380Z,12.30
2022-09-24T04:16:06.484Z,12.30
2022-09-24T04:18:39.025Z,12.30
2022-09-24T04:21:09.086Z,12.30
2022-09-24T04:23:38.735Z,12.30
2022-09-24T04:26:07.775Z,12.30
2022-09-24T04:28:36.615Z,12.40
2022-09-24T04:31:05.946Z,12.40
2022-09-24T04:33:32.867Z,12.40
2022-09-24T04:36:01.999Z,12.40
2022-09-24T04:38:28.815Z,12.40
2022-09-24T04:41:04.678Z,12.40
2022-09-24T04:43:32.311Z,12.40
2022-09-24T04:46:03.791Z,12.40
2022-09-24T04:48:31.255Z,12.40
2022-09-24T04:50:58.514Z,12.40
2022-09-24T04:53:28.303Z,12.40
2022-09-24T04:55:57.516Z,12.30
2022-09-24T04:58:24.277Z,12.30
2022-09-24T05:00:51.238Z,12.40
2022-09-24T05:03:18.100Z,12.40
2022-09-24T05:05:45.474Z,12.40
2022-09-24T05:08:12.362Z,12.40
2022-09-24T05:10:39.441Z,12.30
2022-09-24T05:13:08.344Z,12.20
2022-09-24T05:15:42.290Z,12.20
2022-09-24T05:18:12.906Z,12.30
2022-09-24T05:20:39.649Z,12.30
2022-09-24T05:23:07.328Z,12.30
2022-09-24T05:25:59.532Z,12.30
2022-09-24T05:28:33.190Z,12.30
2022-09-24T05:31:02.961Z,12.30
2022-09-24T05:33:29.750Z,12.30
2022-09-24T05:35:57.930Z,12.20
2022-09-24T05:38:29.871Z,12.30
2022-09-24T05:41:01.507Z,12.20
2022-09-24T05:43:28.432Z,12.20
2022-09-24T05:45:57.051Z,12.20
2022-09-24T05:48:24.196Z,12.20
2022-09-24T05:50:55.405Z,12.20
2022-09-24T05:53:23.320Z,12.20
2022-09-24T05:55:50.155Z,12.30
2022-09-24T05:58:18.095Z,12.30
2022-09-24T06:00:47.150Z,12.30
2022-09-24T06:03:16.724Z,12.30
2022-09-24T06:05:46.099Z,12.30
2022-09-24T06:08:16.821Z,12.30
2022-09-24T06:10:45.446Z,12.40
2022-09-24T06:13:14.253Z,12.40
2022-09-24T06:15:42.221Z,12.40
2022-09-24T06:18:12.371Z,12.40
2022-09-24T06:20:40.127Z,12.40
2022-09-24T06:23:07.742Z,12.40
2022-09-24T06:25:38.775Z,12.40
2022-09-24T06:28:05.862Z,12.40
2022-09-24T06:30:41.386Z,12.30
2022-09-24T06:33:15.256Z,12.30
2022-09-24T06:35:43.527Z,12.30
2022-09-24T06:38:17.892Z,12.30
2022-09-24T06:40:45.917Z,12.40
2022-09-24T06:43:13.554Z,12.40
2022-09-24T06:45:43.509Z,12.50
2022-09-24T06:48:14.188Z,12.50
2022-09-24T06:50:43.450Z,12.60
2022-09-24T06:53:11.867Z,12.60
2022-09-24T06:55:43.507Z,12.70
2022-09-24T06:58:16.163Z,12.70
2022-09-24T07:00:43.479Z,12.70
2022-09-24T07:03:19.766Z,12.70
2022-09-24T07:05:46.575Z,12.70
2022-09-24T07:08:13.362Z,12.80
2022-09-24T07:10:49.172Z,12.80
2022-09-24T07:13:19.051Z,12.80
2022-09-24T07:15:45.850Z,12.80
2022-09-24T07:18:13.375Z,12.80
2022-09-24T07:20:40.589Z,12.80
2022-09-24T07:23:09.023Z,12.80
2022-09-24T07:25:39.015Z,12.90
2022-09-24T07:28:08.534Z,12.90
2022-09-24T07:30:36.075Z,12.90
2022-09-24T07:33:05.904Z,12.90
2022-09-24T07:35:32.991Z,12.90
2022-09-24T07:38:08.389Z,13.00
2022-09-24T07:40:35.307Z,12.90
2022-09-24T07:43:02.203Z,13.00
2022-09-24T07:45:32.351Z,13.00
2022-09-24T07:48:01.229Z,13.00
2022-09-24T07:50:30.172Z,13.00
2022-09-24T07:52:57.080Z,13.10
2022-09-24T07:55:24.342Z,13.10
2022-09-24T07:57:55.464Z,13.10
2022-09-24T08:00:25.084Z,13.20
2022-09-24T08:02:53.780Z,13.30
2022-09-24T08:05:22.704Z,13.30
2022-09-24T08:07:59.146Z,13.40
2022-09-24T08:10:29.395Z,13.40
2022-09-24T08:12:57.148Z,13.40
2022-09-24T08:15:24.056Z,13.40
2022-09-24T08:17:51.286Z,13.40
2022-09-24T08:20:20.095Z,13.50
2022-09-24T08:22:51.594Z,13.50
2022-09-24T08:25:18.382Z,13.60
2022-09-24T08:27:45.127Z,13.60
2022-09-24T08:30:14.356Z,13.60
2022-09-24T08:32:45.828Z,13.70
2022-09-24T08:35:12.574Z,13.70
2022-09-24T08:37:39.408Z,13.80
2022-09-24T08:40:24.651Z,13.90
2022-09-24T08:43:32.504Z,14.00
2022-09-24T08:46:23.146Z,14.10
2022-09-24T08:48:53.387Z,14.10
2022-09-24T08:51:23.070Z,14.20
2022-09-24T08:54:13.340Z,14.20
2022-09-24T08:56:44.033Z,14.20
2022-09-24T08:59:34.382Z,14.20
2022-09-24T09:02:15.814Z,14.20
2022-09-24T09:05:05.101Z,14.10
2022-09-24T09:07:40.166Z,14.10
2022-09-24T09:10:28.960Z,14.10
2022-09-24T09:13:19.373Z,14.20
2022-09-24T09:16:01.977Z,14.40
2022-09-24T09:18:41.396Z,14.50
2022-09-24T09:21:20.938Z,14.60
2022-09-24T09:23:51.846Z,14.60
2022-09-24T09:26:21.401Z,14.60
2022-09-24T09:28:49.017Z,14.50
2022-09-24T09:31:29.830Z,14.60
2022-09-24T09:34:15.580Z,14.60
2022-09-24T09:37:05.806Z,14.70
2022-09-24T09:39:41.564Z,14.60
2022-09-24T09:42:26.191Z,14.60
2022-09-24T09:44:55.460Z,14.60
2022-09-24T09:47:35.939Z,14.60
2022-09-24T09:50:41.621Z,14.60
2022-09-24T09:53:28.530Z,14.70
2022-09-24T09:55:56.411Z,14.70
2022-09-24T09:58:26.313Z,14.70
2022-09-24T10:01:04.098Z,14.70
2022-09-24T10:03:49.765Z,14.80
2022-09-24T10:06:25.881Z,14.90
2022-09-24T10:08:53.020Z,14.90
2022-09-24T10:11:22.510Z,15.00
2022-09-24T10:14:03.075Z,15.00
2022-09-24T10:16:29.991Z,15.00
2022-09-24T10:18:59.529Z,14.90
2022-09-24T10:21:39.860Z,14.90
2022-09-24T10:24:16.463Z,14.80
2022-09-24T10:26:47.922Z,14.80
2022-09-24T10:29:41.004Z,14.80
2022-09-24T10:32:17.415Z,14.80
2022-09-24T10:34:59.100Z,14.90
2022-09-24T10:37:26.746Z,14.90
2022-09-24T10:40:13.510Z,14.90
2022-09-24T10:42:42.748Z,15.00
2022-09-24T10:45:15.117Z,15.00
2022-09-24T10:47:57.481Z,15.00
2022-09-24T10:51:00.596Z,15.00
2022-09-24T10:53:30.205Z,15.00
2022-09-24T10:56:03.854Z,15.10
2022-09-24T10:59:01.769Z,15.20
2022-09-24T11:01:46.075Z,15.30
2022-09-24T11:04:20.148Z,15.30
2022-09-24T11:07:15.933Z,15.40
2022-09-24T11:10:10.012Z,15.40
2022-09-24T11:12:36.905Z,15.50
2022-09-24T11:15:37.572Z,15.60
2022-09-24T11:18:33.149Z,15.60
2022-09-24T11:21:15.352Z,15.60
2022-09-24T11:23:54.548Z,15.70
2022-09-24T11:26:40.052Z,15.70
2022-09-24T11:29:38.303Z,15.70
2022-09-24T11:32:18.185Z,15.80
2022-09-24T11:35:18.327Z,15.80
2022-09-24T11:38:09.790Z,15.80
2022-09-24T11:40:52.971Z,15.90
2022-09-24T11:43:44.543Z,15.90
2022-09-24T11:46:36.387Z,15.80
2022-09-24T11:49:27.323Z,15.90
2022-09-24T11:52:06.219Z,15.80
2022-09-24T11:54:54.148Z,15.90
2022-09-24T11:57:31.108Z,15.90
2022-09-24T12:00:12.469Z,15.90
2022-09-24T12:03:04.638Z,15.90
2022-09-24T12:06:08.353Z,15.90
2022-09-24T12:08:46.792Z,15.90
2022-09-24T12:11:19.654Z,15.80
2022-09-24T12:13:55.562Z,15.70
2022-09-24T12:16:26.981Z,15.80
2022-09-24T12:19:18.736Z,15.80
2022-09-24T12:21:51.649Z,15.80
2022-09-24T12:24:36.082Z,15.80
2022-09-24T12:27:10.473Z,15.90
2022-09-24T12:30:17.920Z,15.90
2022-09-24T12:32:56.584Z,15.90
2022-09-24T12:35:45.232Z,15.90
2022-09-24T12:38:25.712Z,16.00
2022-09-24T12:41:11.391Z,16.00
2022-09-24T12:43:52.806Z,16.10
2022-09-24T12:46:28.597Z,16.20
2022-09-24T12:48:56.125Z,16.10
2022-09-24T12:51:37.747Z,16.10
2022-09-24T12:54:27.793Z,16.10
2022-09-24T12:57:25.974Z,16.10
2022-09-24T12:59:55.781Z,16.10
2022-09-24T13:02:46.391Z,16.10
2022-09-24T13:05:21.643Z,16.10
2022-09-24T13:07:59.508Z,16.20
2022-09-24T13:10:34.497Z,16.30
2022-09-24T13:13:02.787Z,16.30
2022-09-24T13:15:36.976Z,16.40
2022-09-24T13:18:06.090Z,16.40
2022-09-24T13:20:34.754Z,16.40
2022-09-24T13:23:35.264Z,16.50
2022-09-24T13:26:07.832Z,16.50
2022-09-24T13:28:50.898Z,16.50
2022-09-24T13:31:35.783Z,16.50
2022-09-24T13:34:17.499Z,16.50
2022-09-24T13:36:53.714Z,16.40
2022-09-24T13:40:01.998Z,16.50
2022-09-24T13:42:39.766Z,16.50
2022-09-24T13:45:21.424Z,16.50
2022-09-24T13:47:55.839Z,16.50
2022-09-24T13:50:39.072Z,16.60
2022-09-24T13:53:11.023Z,16.60
2022-09-24T13:55:50.794Z,16.70
2022-09-24T13:58:30.974Z,16.70
2022-09-24T14:01:02.084Z,16.80
2022-09-24T14:03:36.602Z,16.90
2022-09-24T14:06:17.033Z,16.90
2022-09-24T14:08:49.707Z,16.90
2022-09-24T14:11:24.401Z,16.90
2022-09-24T14:13:55.141Z,16.80
2022-09-24T14:16:26.306Z,16.80
2022-09-24T14:19:04.239Z,16.80
2022-09-24T14:21:39.771Z,16.80
2022-09-24T14:24:28.759Z,16.70
2022-09-24T14:27:10.429Z,16.60
2022-09-24T14:29:47.827Z,16.60
2022-09-24T14:32:35.155Z,16.60
2022-09-24T14:35:29.908Z,16.50
2022-09-24T14:38:09.481Z,16.50
2022-09-24T14:40:43.955Z,16.50
2022-09-24T14:43:31.937Z,16.40
2022-09-24T14:46:06.918Z,16.40
2022-09-24T14:48:36.030Z,16.40
2022-09-24T14:51:02.976Z,16.40
2022-09-24T14:53:36.446Z,16.30
2022-09-24T14:56:39.013Z,16.30
2022-09-24T14:59:14.710Z,16.30
2022-09-24T15:01:41.719Z,16.30
2022-09-24T15:04:22.532Z,16.30
2022-09-24T15:06:49.524Z,16.30
2022-09-24T15:09:27.967Z,16.30
2022-09-24T15:11:57.044Z,16.20
2022-09-24T15:14:33.339Z,16.10
2022-09-24T15:17:33.184Z,16.20
2022-09-24T15:20:00.844Z,16.10
2022-09-24T15:22:30.945Z,16.10
2022-09-24T15:25:02.026Z,16.10
2022-09-24T15:27:39.507Z,16.10
2022-09-24T15:30:07.965Z,16.10
2022-09-24T15:32:35.948Z,16.10
2022-09-24T15:35:09.482Z,16.10
2022-09-24T15:37:43.005Z,16.10
2022-09-24T15:40:16.764Z,16.10
2022-09-24T15:42:46.118Z,16.10
2022-09-24T15:45:23.993Z,16.10
2022-09-24T15:47:52.263Z,16.10
2022-09-24T15:50:25.960Z,16.10
2022-09-24T15:52:59.439Z,16.00
2022-09-24T15:55:29.470Z,16.00
2022-09-24T15:57:56.237Z,16.00
2022-09-24T16:00:24.939Z,16.00
2022-09-24T16:02:54.715Z,16.00
2022-09-24T16:05:24.308Z,16.00
2022-09-24T16:07:55.351Z,16.00
2022-09-24T16:10:22.223Z,16.00
2022-09-24T16:12:51.357Z,16.00
2022-09-24T16:15:18.882Z,15.90
2022-09-24T16:17:49.859Z,15.90
2022-09-24T16:20:16.723Z,15.90
2022-09-24T16:22:43.445Z,15.90
2022-09-24T16:25:10.386Z,15.90
2022-09-24T16:27:37.560Z,15.90
2022-09-24T16:30:06.234Z,15.90
2022-09-24T16:32:33.200Z,15.90
2022-09-24T16:35:02.529Z,15.80
2022-09-24T16:37:31.750Z,15.80
2022-09-24T16:39:58.608Z,15.80
2022-09-24T16:42:26.386Z,15.80
2022-09-24T16:44:53.202Z,15.80
2022-09-24T16:47:22.515Z,15.80
2022-09-24T16:49:51.584Z,15.70
2022-09-24T16:52:18.382Z,15.70
2022-09-24T16:54:45.094Z,15.70
2022-09-24T16:57:11.863Z,15.70
2022-09-24T16:59:38.659Z,15.70
2022-09-24T17:02:05.502Z,15.60
2022-09-24T17:04:35.275Z,15.60
2022-09-24T17:07:04.590Z,15.60
2022-09-24T17:09:52.215Z,15.60
2022-09-24T17:12:21.271Z,15.60
2022-09-24T17:14:48.023Z,15.60
2022-09-24T17:17:14.909Z,15.60
2022-09-24T17:19:46.256Z,15.60
2022-09-24T17:22:13.041Z,15.50
2022-09-24T17:24:41.947Z,15.50
2022-09-24T17:27:09.367Z,15.50
2022-09-24T17:29:40.444Z,15.50
2022-09-24T17:32:09.781Z,15.50
2022-09-24T17:34:42.242Z,15.50
2022-09-24T17:37:11.912Z,15.50
2022-09-24T17:39:38.710Z,15.50
2022-09-24T17:42:07.984Z,15.50
2022-09-24T17:44:35.217Z,15.50
2022-09-24T17:47:02.236Z,15.50
2022-09-24T17:49:31.379Z,15.50
2022-09-24T17:52:02.122Z,15.50
2022-09-24T17:54:28.908Z,15.40
2022-09-24T17:56:55.775Z,15.40
2022-09-24T17:59:26.702Z,15.50
2022-09-24T18:01:56.821Z,15.40
2022-09-24T18:04:28.098Z,15.50
2022-09-24T18:06:54.987Z,15.40
2022-09-24T18:09:21.709Z,15.40
2022-09-24T18:11:51.421Z,15.40
2022-09-24T18:14:20.776Z,15.40
2022-09-24T18:16:49.316Z,15.40
2022-09-24T18:19:17.429Z,15.40
2022-09-24T18:21:45.741Z,15.40
2022-09-24T18:24:12.746Z,15.40
2022-09-24T18:26:43.124Z,15.40
2022-09-24T18:29:16.033Z,15.40
2022-09-24T18:31:45.397Z,15.30
2022-09-24T18:34:14.651Z,15.40
2022-09-24T18:36:45.058Z,15.40
2022-09-24T18:39:15.880Z,15.30
2022-09-24T18:41:44.596Z,15.30
2022-09-24T18:44:14.118Z,15.30
2022-09-24T18:46:43.365Z,15.30
2022-09-24T18:49:12.982Z,15.30
2022-09-24T18:51:41.129Z,15.30
2022-09-24T18:54:14.099Z,15.30
2022-09-24T18:56:43.944Z,15.30
2022-09-24T18:59:16.280Z,15.20
2022-09-24T19:01:47.177Z,15.20
2022-09-24T19:04:14.665Z,15.20
2022-09-24T19:06:43.946Z,15.20
2022-09-24T19:09:17.126Z,15.20
2022-09-24T19:11:45.419Z,15.20
2022-09-24T19:14:14.983Z,15.20
2022-09-24T19:16:44.572Z,15.20
2022-09-24T19:19:13.591Z,15.10
2022-09-24T19:21:42.254Z,15.10
2022-09-24T19:24:11.353Z,15.10
2022-09-24T19:26:40.887Z,15.10
2022-09-24T19:29:07.623Z,15.10
2022-09-24T19:31:38.154Z,15.10
2022-09-24T19:34:07.137Z,15.10
2022-09-24T19:36:44.968Z,15.10
2022-09-24T19:39:14.630Z,15.10
2022-09-24T19:41:41.867Z,15.10
2022-09-24T19:44:11.655Z,15.10
2022-09-24T19:46:39.847Z,15.00
2022-09-24T19:49:07.352Z,15.00
2022-09-24T19:51:35.393Z,15.00
2022-09-24T19:54:07.747Z,15.00
2022-09-24T19:56:35.875Z,15.00
2022-09-24T19:59:03.994Z,15.00
2022-09-24T20:01:33.892Z,14.90
2022-09-24T20:04:03.983Z,14.90
2022-09-24T20:06:34.642Z,14.90
2022-09-24T20:09:01.847Z,14.90
2022-09-24T20:11:32.354Z,14.90
2022-09-24T20:14:05.915Z,14.90
2022-09-24T20:16:38.021Z,14.90
2022-09-24T20:19:05.002Z,14.90
2022-09-24T20:21:36.073Z,14.90
2022-09-24T20:24:07.965Z,14.80
2022-09-24T20:26:53.849Z,14.80
2022-09-24T20:29:21.987Z,14.80
2022-09-24T20:31:51.929Z,14.80
2022-09-24T20:34:19.655Z,14.80
2022-09-24T20:36:46.533Z,14.80
2022-09-24T20:39:14.073Z,14.80
2022-09-24T20:41:42.701Z,14.80
2022-09-24T20:44:11.601Z,14.80
2022-09-24T20:46:39.342Z,14.80
2022-09-24T20:49:06.464Z,14.80
2022-09-24T20:51:33.685Z,14.80
2022-09-24T20:54:01.403Z,14.80
2022-09-24T20:56:30.559Z,14.80
2022-09-24T20:58:57.724Z,14.80
2022-09-24T21:01:24.996Z,14.80
2022-09-24T21:03:52.834Z,14.80
2022-09-24T21:06:22.897Z,14.70
2022-09-24T21:08:50.912Z,14.70
2022-09-24T21:11:22.404Z,14.70
2022-09-24T21:13:54.606Z,14.70
2022-09-24T21:16:26.501Z,14.60
2022-09-24T21:18:56.642Z,14.60
2022-09-24T21:21:26.385Z,14.60
2022-09-24T21:23:54.614Z,14.60
2022-09-24T21:26:22.540Z,14.60
2022-09-24T21:28:52.466Z,14.60
2022-09-24T21:31:25.379Z,14.60
2022-09-24T21:33:55.567Z,14.60
2022-09-24T21:36:29.204Z,14.60
2022-09-24T21:39:14.968Z,14.60
2022-09-24T21:41:45.321Z,14.60
2022-09-24T21:44:14.422Z,14.50
2022-09-24T21:46:44.054Z,14.50
2022-09-24T21:49:11.923Z,14.50
2022-09-24T21:51:39.637Z,14.50
2022-09-24T21:54:08.546Z,14.50
2022-09-24T21:56:36.066Z,14.50
2022-09-24T21:59:26.698Z,14.50
2022-09-24T22:01:56.491Z,14.50
2022-09-24T22:04:25.873Z,14.50
2022-09-24T22:06:52.639Z,14.50
2022-09-24T22:09:19.843Z,14.50
2022-09-24T22:11:46.963Z,14.50
2022-09-24T22:14:14.216Z,14.50
2022-09-24T22:16:43.320Z,14.50
2022-09-24T22:19:10.182Z,14.50
2022-09-24T22:21:37.230Z,14.50
2022-09-24T22:24:06.513Z,14.50
2022-09-24T22:26:33.389Z,14.50
2022-09-24T22:29:00.421Z,14.50
2022-09-24T22:31:29.500Z,14.40
2022-09-24T22:34:16.656Z,14.40
2022-09-24T22:36:43.505Z,14.40
2022-09-24T22:39:12.608Z,14.40
2022-09-24T22:41:40.023Z,14.40
2022-09-24T22:44:11.748Z,14.40
2022-09-24T22:46:41.698Z,14.40
2022-09-24T22:49:09.172Z,14.40
2022-09-24T22:51:39.212Z,14.40
2022-09-24T22:54:06.817Z,14.40
2022-09-24T22:56:34.882Z,14.50
2022-09-24T22:59:01.686Z,14.50
2022-09-24T23:01:41.706Z,14.50
2022-09-24T23:04:09.846Z,14.50
2022-09-24T23:06:37.394Z,14.40
2022-09-24T23:09:04.929Z,14.50
2022-09-24T23:11:35.388Z,14.40
2022-09-24T23:14:17.002Z,14.40
2022-09-24T23:16:44.210Z,14.40
2022-09-24T23:19:17.584Z,14.40
2022-09-24T23:21:45.272Z,14.40
2022-09-24T23:24:18.573Z,14.40
2022-09-24T23:26:46.274Z,14.30
2022-09-24T23:29:16.351Z,14.30
2022-09-24T23:31:43.310Z,14.40
2022-09-24T23:34:14.550Z,14.40
2022-09-24T23:36:41.975Z,14.40
2022-09-24T23:39:08.701Z,14.40
2022-09-24T23:41:35.578Z,14.40
2022-09-24T23:44:04.716Z,14.40
2022-09-24T23:46:33.593Z,14.40
2022-09-24T23:49:00.529Z,14.40
2022-09-24T23:51:29.919Z,14.40
2022-09-24T23:53:56.695Z,14.40
2022-09-24T23:56:25.881Z,14.40
2022-09-24T23:58:55.167Z,14.40
